Time;durP1;ratioP1;P1;durP2;ratioP2;P2;SDS_P1;SDS_P2;PMS_P1;PMS_P2;Temp;Humidity;BMP_temperature;BMP_pressure;BME280_temperature;BME280_humidity;BME280_pressure;Samples;Min_cycle;Max_cycle;Signal;HPM_P1;HPM_P2
2022/10/12 00:00:49;;;;;;;8.00;4.30;;;7.80;99.90;;;;;;5066439;28;20086;-53
2022/10/12 00:03:16;;;;;;;8.40;4.47;;;7.70;99.90;;;;;;5065562;28;20502;-53
2022/10/12 00:05:41;;;;;;;11.13;5.18;;;7.70;99.90;;;;;;5066234;28;20045;-52
2022/10/12 00:08:07;;;;;;;15.10;5.30;;;7.70;99.90;;;;;;5065195;28;20482;-53
2022/10/12 00:10:32;;;;;;;12.60;5.15;;;7.70;99.90;;;;;;5068896;28;20040;-53
2022/10/12 00:12:59;;;;;;;7.88;4.35;;;7.60;99.90;;;;;;5064357;28;20036;-50
2022/10/12 00:15:24;;;;;;;10.85;4.85;;;7.50;99.90;;;;;;5065486;28;20336;-49
2022/10/12 00:17:52;;;;;;;9.30;5.32;;;7.50;99.90;;;;;;5064461;28;20090;-54
2022/10/12 00:20:18;;;;;;;8.70;4.68;;;7.50;99.90;;;;;;5064646;28;20048;-53
2022/10/12 00:22:43;;;;;;;9.90;4.45;;;7.40;99.90;;;;;;5059437;28;20409;-50
2022/10/12 00:25:09;;;;;;;9.35;5.35;;;7.40;99.90;;;;;;5068921;28;20135;-51
2022/10/12 00:27:35;;;;;;;8.10;4.13;;;7.30;99.90;;;;;;5065788;28;20123;-53
2022/10/12 00:30:00;;;;;;;7.28;4.85;;;7.30;99.90;;;;;;5065028;28;20074;-50
2022/10/12 00:32:26;;;;;;;8.98;4.85;;;7.20;99.90;;;;;;5064250;28;20036;-52
2022/10/12 00:34:52;;;;;;;10.63;4.20;;;7.20;99.90;;;;;;5067682;28;20097;-54
2022/10/12 00:37:17;;;;;;;10.75;4.63;;;7.20;99.90;;;;;;5068481;28;20075;-53
2022/10/12 00:39:43;;;;;;;6.30;4.63;;;7.10;99.90;;;;;;5067928;28;20131;-51
2022/10/12 00:42:12;;;;;;;11.38;4.45;;;7.10;99.90;;;;;;5067573;28;20395;-52
2022/10/12 00:44:38;;;;;;;12.85;4.88;;;7.10;99.90;;;;;;5068001;28;20098;-54
2022/10/12 00:47:29;;;;;;;9.32;4.78;;;7.00;99.90;;;;;;5064134;28;20775;-50
2022/10/12 00:50:14;;;;;;;14.35;4.90;;;6.90;99.90;;;;;;5066257;28;20055;-49
2022/10/12 00:52:45;;;;;;;10.95;4.75;;;6.90;99.90;;;;;;5066029;28;20105;-52
2022/10/12 00:55:15;;;;;;;11.75;4.80;;;6.90;99.90;;;;;;5065251;28;20432;-52
2022/10/12 00:57:41;;;;;;;9.77;4.60;;;6.80;99.90;;;;;;5065470;28;20058;-50
2022/10/12 01:00:08;;;;;;;9.20;5.10;;;6.80;99.90;;;;;;5063001;28;20032;-51
2022/10/12 01:02:36;;;;;;;11.98;4.65;;;6.70;99.90;;;;;;5065478;28;20037;-52
2022/10/12 01:05:02;;;;;;;9.73;4.87;;;6.70;99.90;;;;;;5066496;28;20032;-50
2022/10/12 01:07:27;;;;;;;9.82;4.45;;;6.70;99.90;;;;;;5065222;28;21804;-50
2022/10/12 01:09:53;;;;;;;10.93;5.43;;;6.60;99.90;;;;;;5067561;28;20046;-49
2022/10/12 01:12:19;;;;;;;9.13;3.95;;;6.60;99.90;;;;;;5066431;28;20071;-50
2022/10/12 01:14:45;;;;;;;9.95;4.97;;;6.60;99.90;;;;;;5066428;28;20556;-54
2022/10/12 01:17:47;;;;;;;14.20;5.28;;;6.50;99.90;;;;;;5064142;28;20048;-51
2022/10/12 01:20:37;;;;;;;15.70;4.80;;;6.50;99.90;;;;;;5065645;28;20493;-48
2022/10/12 01:23:15;;;;;;;11.93;4.85;;;6.60;99.90;;;;;;5062737;28;20041;-52
2022/10/12 01:25:59;;;;;;;10.82;4.75;;;6.50;99.90;;;;;;5064302;28;20033;-51
2022/10/12 01:28:52;;;;;;;14.00;4.68;;;6.50;99.90;;;;;;5060808;28;20359;-50
2022/10/12 01:31:39;;;;;;;8.45;4.65;;;6.50;99.90;;;;;;5058069;28;20642;-52
2022/10/12 01:34:18;;;;;;;7.57;4.57;;;6.50;99.90;;;;;;5045712;28;20452;-51
2022/10/12 01:37:12;;;;;;;10.25;4.28;;;6.40;99.90;;;;;;5079025;28;20044;-50
2022/10/12 01:39:48;;;;;;;14.02;4.60;;;6.40;99.90;;;;;;5063381;28;20057;-53
2022/10/12 01:42:20;;;;;;;9.88;4.10;;;6.40;99.90;;;;;;5065693;28;20040;-50
2022/10/12 01:44:46;;;;;;;10.35;5.38;;;6.40;99.90;;;;;;5065332;28;20048;-49
2022/10/12 01:47:12;;;;;;;8.93;4.28;;;6.30;99.90;;;;;;5065090;28;20094;-51
2022/10/12 01:49:38;;;;;;;8.40;4.88;;;6.30;99.90;;;;;;5061624;28;21478;-50
2022/10/12 01:52:17;;;;;;;13.52;4.75;;;6.30;99.90;;;;;;5067722;28;20432;-52
2022/10/12 01:54:43;;;;;;;11.75;4.32;;;6.30;99.90;;;;;;5062133;28;20060;-49
2022/10/12 01:57:27;;;;;;;8.50;4.40;;;6.40;99.90;;;;;;5064299;28;20032;-52
2022/10/12 02:00:10;;;;;;;11.27;4.03;;;6.30;99.90;;;;;;5062511;28;20074;-50
2022/10/12 02:02:54;;;;;;;10.77;4.07;;;6.30;99.90;;;;;;5064972;28;20051;-48
2022/10/12 02:05:43;;;;;;;11.38;4.60;;;6.30;99.90;;;;;;5060803;28;20119;-48
2022/10/12 02:08:22;;;;;;;9.00;4.13;;;6.30;99.90;;;;;;5063784;28;20510;-52
2022/10/12 02:10:55;;;;;;;9.38;3.72;;;6.30;99.90;;;;;;5061561;28;20090;-52
2022/10/12 02:13:25;;;;;;;11.77;4.60;;;6.30;99.90;;;;;;5062676;28;20509;-52
2022/10/12 02:15:53;;;;;;;7.68;4.03;;;6.30;99.90;;;;;;5065923;28;20049;-53
2022/10/12 02:18:20;;;;;;;9.35;4.15;;;6.30;99.90;;;;;;5066316;28;20562;-49
2022/10/12 02:20:50;;;;;;;12.57;4.77;;;6.20;99.90;;;;;;5064246;28;20047;-52
2022/10/12 02:23:17;;;;;;;10.63;4.15;;;6.30;99.90;;;;;;5064609;28;20040;-49
2022/10/12 02:25:44;;;;;;;11.20;4.10;;;6.30;99.90;;;;;;5063265;28;20041;-51
2022/10/12 02:28:14;;;;;;;8.50;3.95;;;6.20;99.90;;;;;;5058147;28;20033;-50
2022/10/12 02:31:09;;;;;;;9.80;4.93;;;6.30;99.90;;;;;;5065320;28;20056;-51
2022/10/12 02:33:45;;;;;;;10.60;4.78;;;6.20;99.90;;;;;;5062394;28;20517;-51
2022/10/12 02:36:17;;;;;;;11.25;4.13;;;6.20;99.90;;;;;;5063806;28;20055;-51
2022/10/12 02:38:53;;;;;;;11.38;4.68;;;6.20;99.90;;;;;;5062773;28;20095;-50
2022/10/12 02:41:31;;;;;;;12.00;4.40;;;6.10;99.90;;;;;;5061379;28;20110;-53
2022/10/12 02:44:02;;;;;;;10.52;4.18;;;6.10;99.90;;;;;;5061002;28;20094;-53
2022/10/12 02:46:32;;;;;;;10.82;4.30;;;6.10;99.90;;;;;;5061506;28;20095;-49
2022/10/12 02:48:58;;;;;;;8.18;3.67;;;6.00;99.90;;;;;;5062903;28;20055;-52
2022/10/12 02:51:27;;;;;;;10.05;4.00;;;6.00;99.90;;;;;;5062061;28;20052;-50
2022/10/12 02:53:53;;;;;;;8.85;3.58;;;6.00;99.90;;;;;;5063841;28;20642;-48
2022/10/12 02:56:19;;;;;;;10.35;4.40;;;5.90;99.90;;;;;;5061519;28;20115;-49
2022/10/12 02:58:46;;;;;;;9.70;4.43;;;6.00;99.90;;;;;;5058694;28;20582;-53
2022/10/12 03:01:12;;;;;;;8.70;4.10;;;5.80;99.90;;;;;;5061754;28;20048;-50
2022/10/12 03:03:38;;;;;;;12.25;4.03;;;5.90;99.90;;;;;;5064542;28;20132;-51
2022/10/12 03:06:04;;;;;;;9.07;4.32;;;5.80;99.90;;;;;;5060692;28;20512;-53
2022/10/12 03:08:30;;;;;;;10.27;4.63;;;5.70;99.90;;;;;;5062677;28;20048;-52
2022/10/12 03:11:03;;;;;;;12.55;4.55;;;5.70;99.90;;;;;;5060907;28;20579;-52
2022/10/12 03:13:29;;;;;;;8.52;4.55;;;5.70;99.90;;;;;;5063176;28;20086;-52
2022/10/12 03:16:03;;;;;;;9.50;4.43;;;5.60;99.90;;;;;;5061577;28;20487;-51
2022/10/12 03:18:29;;;;;;;10.88;4.95;;;5.70;99.90;;;;;;5062009;28;20378;-53
2022/10/12 03:20:55;;;;;;;14.70;4.90;;;5.70;99.90;;;;;;5062845;28;20122;-52
2022/10/12 03:23:21;;;;;;;11.43;5.30;;;5.70;99.90;;;;;;5063639;28;20142;-52
2022/10/12 03:25:46;;;;;;;11.88;4.85;;;5.80;99.90;;;;;;5065702;28;20033;-54
2022/10/12 03:28:12;;;;;;;9.73;4.70;;;5.80;99.90;;;;;;5059408;28;20040;-49
2022/10/12 03:30:37;;;;;;;11.50;4.97;;;5.90;99.90;;;;;;5062282;28;20036;-51
2022/10/12 03:33:03;;;;;;;12.18;4.13;;;5.60;99.90;;;;;;5059354;28;20060;-50
2022/10/12 03:35:28;;;;;;;11.07;4.47;;;5.70;99.90;;;;;;5064804;28;20029;-52
2022/10/12 03:37:54;;;;;;;11.88;4.80;;;6.00;99.90;;;;;;5065142;28;20048;-49
2022/10/12 03:40:20;;;;;;;12.10;4.65;;;5.60;99.90;;;;;;5067123;28;20490;-50
2022/10/12 03:42:45;;;;;;;7.22;4.18;;;5.60;99.90;;;;;;5061918;28;20114;-51
2022/10/12 03:45:11;;;;;;;10.93;4.88;;;5.80;99.90;;;;;;5063153;28;20111;-50
2022/10/12 03:47:37;;;;;;;11.23;5.13;;;5.70;99.90;;;;;;5061633;28;20056;-49
2022/10/12 03:50:03;;;;;;;14.38;5.22;;;5.70;99.90;;;;;;5066104;28;20123;-50
2022/10/12 03:52:28;;;;;;;12.70;4.65;;;5.60;99.90;;;;;;5060615;28;20429;-52
2022/10/12 03:54:54;;;;;;;12.68;5.70;;;5.50;99.90;;;;;;5066364;28;20044;-48
2022/10/12 03:57:20;;;;;;;14.80;6.13;;;5.50;99.90;;;;;;5061137;28;20053;-48
2022/10/12 03:59:45;;;;;;;7.82;4.88;;;5.50;99.90;;;;;;5059025;28;20032;-51
2022/10/12 04:02:11;;;;;;;13.05;5.25;;;5.60;99.90;;;;;;5060168;28;20474;-49
2022/10/12 04:04:36;;;;;;;12.73;5.38;;;5.60;99.90;;;;;;5063342;28;20059;-49
2022/10/12 04:07:02;;;;;;;11.48;5.50;;;5.70;99.90;;;;;;5060471;28;20098;-47
2022/10/12 04:09:28;;;;;;;11.05;5.38;;;5.50;99.90;;;;;;5061390;28;20044;-50
2022/10/12 04:11:53;;;;;;;12.45;5.43;;;5.60;99.90;;;;;;5060976;28;20036;-50
2022/10/12 04:14:19;;;;;;;16.05;6.53;;;5.30;99.90;;;;;;5060326;28;20782;-51
2022/10/12 04:16:44;;;;;;;15.45;6.45;;;5.30;99.90;;;;;;5060542;28;20056;-48
2022/10/12 04:19:14;;;;;;;14.00;5.70;;;5.30;99.90;;;;;;5059321;28;21284;-49
2022/10/12 04:21:40;;;;;;;11.50;5.82;;;5.30;99.90;;;;;;5059695;28;20044;-51
2022/10/12 04:24:06;;;;;;;11.52;5.55;;;5.30;99.90;;;;;;5062343;28;20044;-50
2022/10/12 04:26:32;;;;;;;8.93;5.57;;;5.30;99.90;;;;;;5064532;28;20044;-52
2022/10/12 04:28:57;;;;;;;11.65;6.32;;;5.30;99.90;;;;;;5063273;28;20556;-54
2022/10/12 04:31:23;;;;;;;9.93;5.50;;;5.30;99.90;;;;;;5066324;28;20062;-52
2022/10/12 04:33:55;;;;;;;12.68;5.85;;;5.20;99.90;;;;;;5064277;28;20041;-52
2022/10/12 04:36:21;;;;;;;13.80;6.00;;;5.20;99.90;;;;;;5064898;28;20041;-51
2022/10/12 04:38:46;;;;;;;12.63;6.80;;;5.20;99.90;;;;;;5067330;28;20051;-52
2022/10/12 04:41:12;;;;;;;11.98;6.30;;;5.20;99.90;;;;;;5063795;28;20176;-53
2022/10/12 04:43:37;;;;;;;9.52;6.22;;;5.20;99.90;;;;;;5059370;28;20124;-51
2022/10/12 04:46:03;;;;;;;14.43;6.47;;;5.10;99.90;;;;;;5070824;28;20037;-51
2022/10/12 04:48:29;;;;;;;12.27;6.07;;;5.10;99.90;;;;;;5060592;28;20068;-51
2022/10/12 04:50:54;;;;;;;12.80;6.63;;;5.30;99.90;;;;;;5061846;28;20437;-51
2022/10/12 04:53:20;;;;;;;14.82;7.75;;;5.10;99.90;;;;;;5060670;28;20526;-50
2022/10/12 04:55:46;;;;;;;9.60;5.88;;;5.10;99.90;;;;;;5061618;28;20090;-52
2022/10/12 04:58:12;;;;;;;10.23;5.72;;;5.00;99.90;;;;;;5059058;28;21547;-51
2022/10/12 05:00:38;;;;;;;11.48;6.20;;;5.00;99.90;;;;;;5063928;28;20131;-52
2022/10/12 05:03:04;;;;;;;10.27;6.63;;;5.00;99.90;;;;;;5064392;28;20125;-51
2022/10/12 05:05:30;;;;;;;14.65;6.47;;;4.90;99.90;;;;;;5060920;28;20089;-53
2022/10/12 05:07:56;;;;;;;9.63;6.65;;;4.90;99.90;;;;;;5067544;28;20048;-51
2022/10/12 05:10:21;;;;;;;11.50;5.90;;;4.90;99.90;;;;;;5066813;28;20036;-48
2022/10/12 05:12:47;;;;;;;10.27;6.72;;;4.90;99.90;;;;;;5065682;28;20048;-48
2022/10/12 05:15:12;;;;;;;11.32;6.32;;;4.90;99.90;;;;;;5068781;28;20444;-47
2022/10/12 05:17:38;;;;;;;9.32;6.32;;;4.90;99.90;;;;;;5066470;28;20044;-48
2022/10/12 05:20:04;;;;;;;9.88;6.75;;;4.80;99.90;;;;;;5068642;28;20040;-49
2022/10/12 05:22:30;;;;;;;15.52;6.90;;;4.80;99.90;;;;;;5064336;28;20075;-48
2022/10/12 05:24:56;;;;;;;8.50;6.20;;;4.80;99.90;;;;;;5067785;28;20131;-50
2022/10/12 05:27:21;;;;;;;13.02;7.65;;;4.90;99.90;;;;;;5063176;28;20565;-51
2022/10/12 05:29:47;;;;;;;9.75;6.70;;;4.80;99.90;;;;;;5064594;28;20043;-49
2022/10/12 05:32:13;;;;;;;10.73;6.18;;;4.80;99.90;;;;;;5062751;28;20472;-50
2022/10/12 05:34:40;;;;;;;13.93;7.70;;;4.80;99.90;;;;;;5067225;28;20067;-51
2022/10/12 05:37:05;;;;;;;14.20;8.23;;;4.80;99.90;;;;;;5064525;28;20036;-54
2022/10/12 05:39:31;;;;;;;12.25;6.95;;;4.80;99.90;;;;;;5065227;28;20040;-50
2022/10/12 05:41:57;;;;;;;13.77;7.00;;;4.80;99.90;;;;;;5066023;28;20040;-53
2022/10/12 05:44:23;;;;;;;14.70;7.43;;;4.90;99.90;;;;;;5063638;28;20045;-50
2022/10/12 05:46:48;;;;;;;15.80;7.60;;;4.80;99.90;;;;;;5067382;28;20047;-50
2022/10/12 05:49:14;;;;;;;11.60;7.60;;;4.80;99.90;;;;;;5061879;28;20045;-48
2022/10/12 05:51:40;;;;;;;10.25;7.57;;;4.70;99.90;;;;;;5067503;28;20452;-49
2022/10/12 05:54:05;;;;;;;9.20;6.70;;;4.70;99.90;;;;;;5066655;28;20032;-51
2022/10/12 05:56:31;;;;;;;15.82;8.80;;;4.70;99.90;;;;;;5066248;28;20044;-54
2022/10/12 05:58:57;;;;;;;12.88;8.10;;;4.70;99.90;;;;;;5063471;28;20443;-50
2022/10/12 06:01:22;;;;;;;14.15;8.07;;;4.80;99.90;;;;;;5063805;28;20094;-53
2022/10/12 06:03:48;;;;;;;17.48;8.15;;;4.80;99.90;;;;;;5063671;28;20079;-51
2022/10/12 06:06:13;;;;;;;14.63;7.25;;;4.80;99.90;;;;;;5066435;28;20040;-50
2022/10/12 06:08:39;;;;;;;16.35;7.45;;;4.90;99.90;;;;;;5063147;28;21520;-52
2022/10/12 06:11:05;;;;;;;10.40;7.20;;;4.80;99.90;;;;;;5066574;28;20090;-52
2022/10/12 06:13:31;;;;;;;10.27;6.97;;;4.90;99.90;;;;;;5066937;28;20040;-49
2022/10/12 06:15:56;;;;;;;13.00;7.53;;;4.90;99.90;;;;;;5067607;28;20037;-50
2022/10/12 06:18:22;;;;;;;13.32;7.78;;;5.00;99.90;;;;;;5067687;28;20032;-52
2022/10/12 06:20:52;;;;;;;12.38;8.57;;;4.90;99.90;;;;;;5066953;28;20127;-50
2022/10/12 06:23:19;;;;;;;14.70;8.77;;;5.00;99.90;;;;;;5066568;28;20044;-54
2022/10/12 06:25:47;;;;;;;15.65;9.23;;;5.00;99.90;;;;;;5066988;28;20066;-50
2022/10/12 06:28:13;;;;;;;13.18;7.75;;;5.00;99.90;;;;;;5063509;28;20040;-52
2022/10/12 06:30:39;;;;;;;19.23;10.75;;;5.00;99.90;;;;;;5060178;28;20045;-51
2022/10/12 06:33:05;;;;;;;19.23;10.07;;;5.00;99.90;;;;;;5065828;28;20047;-49
2022/10/12 06:35:31;;;;;;;14.88;9.13;;;5.00;99.90;;;;;;5064894;28;20110;-48
2022/10/12 06:37:57;;;;;;;15.52;9.32;;;5.10;99.90;;;;;;5068722;28;20048;-51
2022/10/12 06:40:22;;;;;;;14.73;9.10;;;5.10;99.90;;;;;;5061998;28;20063;-50
2022/10/12 06:42:49;;;;;;;16.48;9.10;;;5.20;99.90;;;;;;5064946;28;20068;-51
2022/10/12 06:45:15;;;;;;;13.48;9.55;;;5.20;99.90;;;;;;5061653;28;20071;-49
2022/10/12 06:47:41;;;;;;;15.15;8.10;;;5.20;99.90;;;;;;5065881;28;20057;-51
2022/10/12 06:50:08;;;;;;;21.10;11.95;;;5.20;99.90;;;;;;5062241;28;20041;-53
2022/10/12 06:52:34;;;;;;;17.10;11.00;;;5.20;99.90;;;;;;5057781;28;20048;-49
2022/10/12 06:54:59;;;;;;;20.85;13.30;;;5.40;99.90;;;;;;5061997;28;20454;-51
2022/10/12 06:57:25;;;;;;;23.33;13.52;;;5.60;99.90;;;;;;5060016;28;20036;-50
2022/10/12 06:59:51;;;;;;;25.02;13.05;;;5.60;99.90;;;;;;5062481;28;20059;-49
2022/10/12 07:02:16;;;;;;;23.77;12.10;;;5.80;99.90;;;;;;5065476;28;20036;-50
2022/10/12 07:04:42;;;;;;;23.13;12.00;;;5.80;99.90;;;;;;5049627;28;20102;-49
2022/10/12 07:07:08;;;;;;;21.17;13.25;;;6.00;99.90;;;;;;5067229;28;20041;-51
2022/10/12 07:09:33;;;;;;;18.77;11.93;;;6.20;99.90;;;;;;5064886;28;20503;-51
2022/10/12 07:11:59;;;;;;;22.27;10.85;;;6.20;99.90;;;;;;5066741;28;20077;-52
2022/10/12 07:14:25;;;;;;;19.45;9.60;;;6.30;99.90;;;;;;5066220;28;20036;-53
2022/10/12 07:16:50;;;;;;;19.58;9.82;;;6.40;99.90;;;;;;5064734;28;20033;-49
2022/10/12 07:19:16;;;;;;;17.38;8.70;;;6.50;99.90;;;;;;5066451;28;20367;-53
2022/10/12 07:21:42;;;;;;;16.83;9.63;;;6.60;99.90;;;;;;5060543;28;20361;-53
2022/10/12 07:24:10;;;;;;;13.88;8.38;;;6.80;99.90;;;;;;5061731;28;20167;-51
2022/10/12 07:26:36;;;;;;;16.73;8.15;;;7.00;99.90;;;;;;5064028;28;20040;-52
2022/10/12 07:29:02;;;;;;;15.63;8.15;;;7.00;99.90;;;;;;5067088;28;20029;-54
2022/10/12 07:31:27;;;;;;;13.13;7.75;;;7.20;99.90;;;;;;5065024;28;20044;-53
2022/10/12 07:33:53;;;;;;;12.55;8.35;;;7.40;99.90;;;;;;5063244;28;20041;-54
2022/10/12 07:36:19;;;;;;;14.05;8.18;;;7.60;99.90;;;;;;5063664;28;20089;-51
2022/10/12 07:38:45;;;;;;;15.07;7.32;;;7.80;99.90;;;;;;5061084;28;20072;-51
2022/10/12 07:41:12;;;;;;;16.15;7.75;;;7.80;99.90;;;;;;5062470;28;20182;-50
2022/10/12 07:43:38;;;;;;;19.67;7.88;;;8.10;99.90;;;;;;5063724;28;20055;-50
2022/10/12 07:46:04;;;;;;;14.73;7.93;;;8.20;99.90;;;;;;5058720;28;20037;-52
2022/10/12 07:48:29;;;;;;;17.83;8.05;;;8.40;99.90;;;;;;5062209;28;20041;-52
2022/10/12 07:51:01;;;;;;;12.75;7.68;;;8.70;99.90;;;;;;5064582;28;20170;-54
2022/10/12 07:53:26;;;;;;;17.73;7.72;;;8.90;99.90;;;;;;5061510;28;20444;-54
2022/10/12 07:55:58;;;;;;;17.23;7.80;;;9.10;99.90;;;;;;5063867;28;20048;-50
2022/10/12 07:58:23;;;;;;;13.32;7.60;;;9.20;99.90;;;;;;5065355;28;20033;-53
2022/10/12 08:00:49;;;;;;;14.32;7.57;;;;;;;;;;5062538;28;20128;-54
2022/10/12 08:03:15;;;;;;;10.60;7.25;;;9.50;99.90;;;;;;5063302;28;20047;-54
2022/10/12 08:05:41;;;;;;;17.27;7.25;;;9.70;99.90;;;;;;5052061;28;20045;-52
2022/10/12 08:08:07;;;;;;;12.70;7.15;;;9.80;99.90;;;;;;5054845;28;20079;-52
2022/10/12 08:10:34;;;;;;;14.60;7.13;;;9.90;99.90;;;;;;5065575;28;20097;-53
2022/10/12 08:12:59;;;;;;;13.30;6.50;;;9.80;99.90;;;;;;5063374;28;20045;-53
2022/10/12 08:15:25;;;;;;;14.00;6.78;;;9.90;99.90;;;;;;5062971;28;20411;-52
2022/10/12 08:17:51;;;;;;;17.50;7.20;;;10.10;99.90;;;;;;5061664;28;20072;-53
2022/10/12 08:20:16;;;;;;;17.30;7.00;;;10.20;99.90;;;;;;5059621;28;20122;-54
2022/10/12 08:22:42;;;;;;;17.92;7.00;;;10.20;99.90;;;;;;5065832;28;20482;-53
2022/10/12 08:25:08;;;;;;;11.63;6.60;;;10.30;99.90;;;;;;5067405;28;20040;-54
2022/10/12 08:27:34;;;;;;;14.80;7.13;;;10.40;99.90;;;;;;5065671;28;20414;-52
2022/10/12 08:30:00;;;;;;;15.02;6.55;;;10.50;99.90;;;;;;5069580;28;20040;-51
2022/10/12 08:32:26;;;;;;;12.88;6.95;;;10.50;99.90;;;;;;5063945;28;20398;-51
2022/10/12 08:34:51;;;;;;;17.58;7.28;;;10.60;99.90;;;;;;5066525;28;20390;-54
2022/10/12 08:37:17;;;;;;;14.10;6.93;;;10.60;99.90;;;;;;5067976;28;20119;-53
2022/10/12 08:39:43;;;;;;;12.23;6.80;;;10.60;99.90;;;;;;5066099;28;20037;-50
2022/10/12 08:42:15;;;;;;;17.73;6.90;;;10.60;99.90;;;;;;5064158;28;20135;-50
2022/10/12 08:44:58;;;;;;;11.80;6.75;;;10.70;99.90;;;;;;5066126;28;20041;-56
2022/10/12 08:47:41;;;;;;;13.93;6.47;;;10.60;99.90;;;;;;5063584;28;20127;-54
2022/10/12 08:50:16;;;;;;;19.15;6.93;;;10.60;99.90;;;;;;5065127;28;20032;-51
2022/10/12 08:53:14;;;;;;;13.68;7.38;;;10.60;99.90;;;;;;5067134;28;20084;-51
2022/10/12 08:55:44;;;;;;;14.98;7.20;;;10.70;99.90;;;;;;5059532;28;20058;-51
2022/10/12 08:58:19;;;;;;;14.07;7.18;;;10.80;99.90;;;;;;5062388;28;20067;-54
2022/10/12 09:00:52;;;;;;;16.58;6.88;;;10.70;99.90;;;;;;5063463;28;20045;-52
2022/10/12 09:03:28;;;;;;;15.35;6.85;;;10.70;99.90;;;;;;5067330;28;20490;-51
2022/10/12 09:06:04;;;;;;;13.57;6.15;;;10.70;99.90;;;;;;5063961;28;20092;-54
2022/10/12 09:08:45;;;;;;;15.30;7.03;;;10.90;99.90;;;;;;5067803;28;20045;-53
2022/10/12 09:11:37;;;;;;;17.05;6.75;;;10.90;99.90;;;;;;5061247;28;20051;-54
2022/10/12 09:14:30;;;;;;;16.02;6.72;;;10.90;99.90;;;;;;5064515;28;20155;-52
2022/10/12 09:16:59;;;;;;;12.93;6.03;;;11.00;99.90;;;;;;5069107;28;20037;-54
2022/10/12 09:19:35;;;;;;;17.80;6.50;;;11.00;99.90;;;;;;5065502;28;20072;-56
2022/10/12 09:22:02;;;;;;;12.35;6.15;;;11.00;99.90;;;;;;5064675;28;20124;-53
2022/10/12 09:24:34;;;;;;;16.00;6.50;;;11.00;99.90;;;;;;5065380;28;20451;-54
2022/10/12 09:27:13;;;;;;;14.18;5.95;;;11.00;99.90;;;;;;5065507;28;20076;-50
2022/10/12 09:29:39;;;;;;;17.15;6.45;;;11.10;99.90;;;;;;5068159;28;20136;-53
2022/10/12 09:32:37;;;;;;;15.00;6.55;;;11.10;99.90;;;;;;5066508;28;20115;-52
2022/10/12 09:35:06;;;;;;;14.43;6.35;;;11.20;99.90;;;;;;5064534;28;20497;-55
2022/10/12 09:37:34;;;;;;;14.23;6.13;;;11.30;99.90;;;;;;5064026;28;20071;-54
2022/10/12 09:40:00;;;;;;;17.50;6.57;;;11.30;99.90;;;;;;5067909;28;20119;-51
2022/10/12 09:42:26;;;;;;;13.38;6.38;;;11.40;99.90;;;;;;5064825;28;20245;-53
2022/10/12 09:45:12;;;;;;;13.68;6.72;;;11.50;99.90;;;;;;5062802;28;20117;-54
2022/10/12 09:47:38;;;;;;;13.77;7.28;;;11.60;99.90;;;;;;5063548;28;20115;-51
2022/10/12 09:50:06;;;;;;;14.45;6.57;;;11.70;99.90;;;;;;5065721;28;20101;-53
2022/10/12 09:52:34;;;;;;;17.33;6.82;;;11.70;99.90;;;;;;5067858;28;20063;-54
2022/10/12 09:55:04;;;;;;;16.48;6.40;;;11.70;99.90;;;;;;5061458;28;20037;-50
2022/10/12 09:57:36;;;;;;;12.80;6.53;;;11.90;99.90;;;;;;5063542;28;20041;-51
2022/10/12 10:00:20;;;;;;;11.90;5.75;;;11.90;99.90;;;;;;5065764;28;20051;-50
2022/10/12 10:02:50;;;;;;;14.93;5.97;;;12.10;99.90;;;;;;5060379;28;20098;-53
2022/10/12 10:05:25;;;;;;;14.68;5.82;;;12.00;99.90;;;;;;5063065;28;20040;-53
2022/10/12 10:07:51;;;;;;;14.60;5.70;;;12.10;99.90;;;;;;5064515;28;20076;-54
2022/10/12 10:10:22;;;;;;;14.07;5.55;;;12.10;99.90;;;;;;5066110;28;20072;-54
2022/10/12 10:12:57;;;;;;;18.10;5.53;;;12.30;99.90;;;;;;5067343;28;20040;-52
2022/10/12 10:15:39;;;;;;;13.85;5.60;;;12.60;99.90;;;;;;5067724;28;20039;-55
2022/10/12 10:18:21;;;;;;;11.43;5.50;;;12.80;99.90;;;;;;5070826;28;20055;-56
2022/10/12 10:20:56;;;;;;;12.15;4.90;;;13.00;99.90;;;;;;5066749;28;20052;-55
2022/10/12 10:23:23;;;;;;;16.75;5.25;;;13.00;99.90;;;;;;5062357;28;20045;-55
2022/10/12 10:26:01;;;;;;;12.52;5.50;;;13.20;99.90;;;;;;5065922;28;20040;-54
2022/10/12 10:28:29;;;;;;;12.30;5.00;;;13.20;99.90;;;;;;5063331;28;20036;-55
2022/10/12 10:30:58;;;;;;;8.85;4.60;;;13.40;99.90;;;;;;5067474;28;20040;-52
2022/10/12 10:33:43;;;;;;;11.38;5.30;;;13.40;99.90;;;;;;5078898;28;20444;-54
2022/10/12 10:36:27;;;;;;;15.90;5.03;;;13.50;99.90;;;;;;5063985;28;20070;-56
2022/10/12 10:39:25;;;;;;;10.02;4.18;;;13.60;99.90;;;;;;5056820;28;20157;-53
2022/10/12 10:42:15;;;;;;;10.15;4.40;;;13.70;99.90;;;;;;5061418;28;20032;-54
2022/10/12 10:45:02;;;;;;;12.27;4.25;;;13.60;99.90;;;;;;5063020;28;20446;-54
2022/10/12 10:47:46;;;;;;;11.82;4.82;;;13.70;99.90;;;;;;5071327;28;20135;-52
2022/10/12 10:50:33;;;;;;;11.75;4.40;;;13.70;99.90;;;;;;5056944;28;20123;-50
2022/10/12 10:53:01;;;;;;;12.57;4.55;;;13.80;99.90;;;;;;5060119;28;20410;-54
2022/10/12 10:55:46;;;;;;;9.90;3.85;;;13.90;99.90;;;;;;5070055;28;20431;-53
2022/10/12 10:58:30;;;;;;;16.08;4.88;;;14.00;99.90;;;;;;5069355;28;20049;-53
2022/10/12 11:01:00;;;;;;;11.07;4.40;;;14.00;99.90;;;;;;5066977;28;20405;-54
2022/10/12 11:04:01;;;;;;;12.25;4.40;;;14.10;99.90;;;;;;5071560;28;20506;-52
2022/10/12 11:06:46;;;;;;;9.40;4.40;;;14.10;99.90;;;;;;5058758;28;20141;-55
2022/10/12 11:09:28;;;;;;;14.00;4.28;;;14.20;99.90;;;;;;5071681;28;20125;-54
2022/10/12 11:12:20;;;;;;;7.38;4.05;;;14.20;99.90;;;;;;5071303;28;20497;-54
2022/10/12 11:14:49;;;;;;;8.98;3.50;;;;;;;;;;5069677;28;20572;-54
2022/10/12 11:17:28;;;;;;;9.20;3.08;;;14.30;99.90;;;;;;5070764;28;20056;-55
2022/10/12 11:20:15;;;;;;;9.80;3.53;;;14.50;99.90;;;;;;5057541;28;20048;-54
2022/10/12 11:22:57;;;;;;;11.90;3.47;;;14.50;99.90;;;;;;5062148;28;20045;-54
2022/10/12 11:25:29;;;;;;;9.93;3.63;;;14.60;99.90;;;;;;5062497;28;20055;-54
2022/10/12 11:27:55;;;;;;;9.27;4.13;;;14.60;99.90;;;;;;5065409;28;20056;-54
2022/10/12 11:30:24;;;;;;;7.82;3.40;;;14.70;99.90;;;;;;5059065;28;20090;-52
2022/10/12 11:32:59;;;;;;;12.05;3.55;;;14.70;99.90;;;;;;5063673;28;20052;-55
2022/10/12 11:35:32;;;;;;;8.52;3.20;;;14.70;99.90;;;;;;5064006;28;20032;-55
2022/10/12 11:38:01;;;;;;;12.98;5.20;;;14.80;99.90;;;;;;5061832;28;20504;-54
2022/10/12 11:40:35;;;;;;;13.35;3.67;;;14.80;99.90;;;;;;5064413;28;20044;-54
2022/10/12 11:43:06;;;;;;;8.80;3.53;;;14.80;99.90;;;;;;5062870;28;20043;-54
2022/10/12 11:45:39;;;;;;;10.77;3.80;;;14.90;99.90;;;;;;5062943;28;20106;-54
2022/10/12 11:48:17;;;;;;;6.93;3.63;;;14.90;99.90;;;;;;5063395;28;20050;-54
2022/10/12 11:50:46;;;;;;;9.95;3.72;;;14.90;99.90;;;;;;5063879;28;20471;-55
2022/10/12 11:53:21;;;;;;;8.15;3.58;;;14.90;99.90;;;;;;5066475;28;20525;-53
2022/10/12 11:56:01;;;;;;;6.93;3.13;;;14.90;99.90;;;;;;5057725;28;20037;-51
2022/10/12 11:58:30;;;;;;;9.10;3.75;;;15.00;99.90;;;;;;5065596;28;20093;-55
2022/10/12 12:01:01;;;;;;;8.23;3.30;;;15.00;99.90;;;;;;5068344;28;20135;-55
2022/10/12 12:04:06;;;;;;;9.63;3.40;;;15.10;99.90;;;;;;5068914;28;20502;-54
2022/10/12 12:06:46;;;;;;;10.02;3.70;;;15.20;99.90;;;;;;5064496;28;20037;-53
2022/10/12 12:09:30;;;;;;;10.23;3.80;;;15.20;99.90;;;;;;5071659;28;20040;-53
2022/10/12 12:12:15;;;;;;;10.27;3.58;;;15.20;99.90;;;;;;5064983;28;20045;-54
2022/10/12 12:14:49;;;;;;;9.27;4.50;;;15.40;99.90;;;;;;5062910;28;20040;-55
2022/10/12 12:17:18;;;;;;;9.80;4.22;;;15.40;99.90;;;;;;5075515;28;20080;-53
2022/10/12 12:19:46;;;;;;;9.48;3.50;;;15.40;99.90;;;;;;5074489;28;20047;-55
2022/10/12 12:22:17;;;;;;;9.32;3.83;;;15.40;99.90;;;;;;5075324;28;20090;-54
2022/10/12 12:25:15;;;;;;;12.32;4.60;;;15.50;99.90;;;;;;5074222;28;20052;-55
2022/10/12 12:27:43;;;;;;;13.38;4.50;;;15.60;99.90;;;;;;5074657;28;20056;-53
2022/10/12 12:30:17;;;;;;;7.82;3.75;;;15.70;99.90;;;;;;5073095;28;20054;-55
2022/10/12 12:32:46;;;;;;;8.60;4.30;;;15.70;99.90;;;;;;5074214;28;20787;-54
2022/10/12 12:35:29;;;;;;;9.90;4.05;;;15.70;99.90;;;;;;5074392;28;20064;-54
2022/10/12 12:38:06;;;;;;;7.47;4.30;;;15.70;99.90;;;;;;5074440;28;20422;-53
2022/10/12 12:40:33;;;;;;;10.10;3.90;;;15.70;99.90;;;;;;5074386;28;20036;-55
2022/10/12 12:43:34;;;;;;;12.38;4.05;;;15.70;99.90;;;;;;5072563;28;20040;-54
2022/10/12 12:46:09;;;;;;;10.55;4.25;;;15.80;99.90;;;;;;5064178;28;20059;-54
2022/10/12 12:48:37;;;;;;;9.73;4.20;;;15.80;99.90;;;;;;5074420;28;20050;-55
2022/10/12 12:51:07;;;;;;;10.80;4.85;;;15.80;99.90;;;;;;5074491;28;20441;-55
2022/10/12 12:53:37;;;;;;;12.00;4.45;;;15.80;99.90;;;;;;5073878;28;20055;-56
2022/10/12 12:56:15;;;;;;;10.82;3.90;;;15.90;99.90;;;;;;5072651;28;20045;-55
2022/10/12 12:59:00;;;;;;;10.48;3.55;;;16.00;99.90;;;;;;5073977;28;20413;-54
2022/10/12 13:01:52;;;;;;;9.05;4.05;;;16.10;99.90;;;;;;5070425;28;20119;-54
2022/10/12 13:04:45;;;;;;;10.45;3.92;;;16.00;99.90;;;;;;5073555;28;20078;-53